Data for 04/28/2014

Time Sea-Level Adjusted Pressure Absolute Pressure Temperature Relative Humidity Dew Point   
(mb) (inHg) (mb) (inHg) (C) (F) (%) (C) (F)
00:05 1013 29.91 842 24.86 -0.9 30.4 97 -1.3 29.6
00:10 1013 29.91 842 24.86 -0.9 30.4 97 -1.3 29.6
00:15 1013 29.91 842 24.86 -0.9 30.4 97 -1.3 29.6
00:20 1013 29.91 842 24.86 -1 30.3 97 -1.4 29.5
00:25 1013 29.91 842 24.86 -1 30.2 97 -1.4 29.4
00:30 1013 29.91 842 24.86 -1 30.2 97 -1.4 29.4
00:35 1013 29.91 842 24.86 -1 30.2 97 -1.4 29.4
00:40 1013 29.91 842 24.86 -1 30.2 97 -1.4 29.5
00:45 1013 29.91 842 24.86 -1 30.2 97 -1.4 29.5
00:50 1013 29.91 842 24.86 -1 30.3 97 -1.4 29.5
00:55 1013 29.91 842 24.86 -0.9 30.3 97 -1.3 29.6
01:00 1013 29.91 842 24.86 -1 30.2 97 -1.4 29.4
01:05 1013 29.91 842 24.86 -1.2 29.9 97 -1.6 29.1
01:10 1013 29.91 842 24.86 -1.2 29.8 97 -1.7 29
01:15 1013 29.91 842 24.86 -1.3 29.7 97 -1.7 28.9
01:20 1013 29.91 842 24.86 -1.3 29.7 97 -1.7 29
01:25 1013 29.91 842 24.86 -1.2 29.8 97 -1.7 29
01:30 1013 29.91 842 24.86 -1.2 29.8 97 -1.6 29.1
01:35 1013 29.91 842 24.86 -1.2 29.9 97 -1.6 29.1
01:40 1013 29.91 842 24.86 -1.2 29.8 97 -1.6 29
01:45 1013 29.91 843 24.89 -1.3 29.7 97 -1.7 28.9
01:50 1013 29.91 843 24.89 -1.3 29.6 97 -1.7 28.9
01:55 1013 29.91 843 24.89 -1.4 29.5 97 -1.8 28.8
02:00 1013 29.91 843 24.89 -1.3 29.6 97 -1.7 28.9
02:05 1013 29.91 843 24.89 -1.3 29.6 97 -1.7 28.9
02:10 1014 29.94 843 24.89 -1.3 29.6 97 -1.7 28.9
02:15 1014 29.94 843 24.89 -1.3 29.6 97 -1.7 28.9
02:20 1014 29.94 843 24.89 -1.3 29.7 97 -1.7 28.9
02:25 1014 29.94 843 24.89 -1.3 29.6 97 -1.7 28.9
02:30 1014 29.94 843 24.89 -1.3 29.6 97 -1.8 28.8
02:35 1014 29.94 843 24.89 -1.3 29.6 97 -1.8 28.8
02:40 1014 29.94 843 24.89 -1.3 29.6 97 -1.8 28.8
02:45 1014 29.94 843 24.89 -1.3 29.6 97 -1.8 28.8
02:50 1014 29.94 843 24.89 -1.4 29.5 97 -1.8 28.8
02:55 1014 29.94 843 24.89 -1.4 29.5 97 -1.8 28.7
03:00 1014 29.94 843 24.89 -1.4 29.4 97 -1.8 28.7
03:05 1014 29.94 843 24.89 -1.5 29.3 97 -1.9 28.5
03:10 1014 29.94 843 24.89 -1.5 29.2 97 -2 28.5
03:15 1014 29.94 843 24.89 -1.6 29.2 97 -2 28.4
03:20 1014 29.94 843 24.89 -1.6 29.1 97 -2 28.3
03:25 1014 29.94 843 24.89 -1.6 29.1 97 -2 28.4
03:30 1014 29.94 843 24.89 -1.6 29.2 97 -2 28.4
03:35 1014 29.94 843 24.89 -1.6 29.2 97 -2 28.3
03:40 1014 29.94 844 24.92 -1.6 29.2 97 -2 28.3
03:45 1014 29.94 844 24.92 -1.5 29.3 97 -2 28.4
03:50 1014 29.94 844 24.92 -1.5 29.3 97 -2 28.5
03:55 1014 29.94 844 24.92 -1.5 29.2 97 -2 28.4
04:00 1015 29.97 844 24.92 -1.5 29.3 97 -2 28.4
04:05 1015 29.97 844 24.92 -1.5 29.3 97 -2 28.4
04:10 1015 29.97 844 24.92 -1.5 29.3 97 -2 28.5
04:15 1015 29.97 844 24.92 -1.6 29.2 97 -2 28.3
04:20 1015 29.97 844 24.92 -1.6 29.2 96 -2.1 28.3
04:25 1015 29.97 844 24.92 -1.6 29.1 96 -2.1 28.2
04:30 1015 29.97 844 24.92 -1.6 29.1 96 -2.2 28.1
04:35 1015 29.97 844 24.92 -1.7 29 96 -2.2 28
04:40 1015 29.97 844 24.92 -1.7 29 96 -2.3 27.9
04:45 1015 29.97 844 24.92 -1.7 28.9 95 -2.3 27.8
04:50 1015 29.97 844 24.92 -1.7 28.9 95 -2.4 27.7
04:55 1015 29.97 844 24.92 -1.7 29 95 -2.4 27.7
05:00 1015 29.97 844 24.92 -1.7 29 94 -2.4 27.6
05:05 1015 29.97 844 24.92 -1.6 29.2 94 -2.5 27.6
05:10 1015 29.97 844 24.92 -1.6 29.2 93 -2.5 27.4
05:15 1015 29.97 844 24.92 -1.5 29.3 92 -2.7 27.2
05:20 1015 29.97 844 24.92 -1.5 29.4 90 -2.8 26.9
05:25 1015 29.97 844 24.92 -1.4 29.5 89 -3 26.6
05:30 1015 29.97 844 24.92 -1.4 29.6 88 -3.1 26.5
05:35 1015 29.97 844 24.92 -1.4 29.5 89 -3 26.6
05:40 1015 29.97 844 24.92 -1.4 29.5 89 -3.1 26.5
05:45 1015 29.97 844 24.92 -1.4 29.5 88 -3.2 26.3
05:50 1015 29.97 845 24.95 -1.4 29.6 87 -3.3 26
05:55 1015 29.97 845 24.95 -1.3 29.6 85 -3.5 25.7
06:00 1015 29.97 845 24.95 -1.3 29.7 84 -3.6 25.5
06:05 1016 30 845 24.95 -1.1 30 83 -3.7 25.4
06:10 1016 30 845 24.95 -1 30.2 81 -3.9 25
06:15 1016 30 845 24.95 -0.9 30.4 79 -4.1 24.7
06:20 1016 30 845 24.95 -0.9 30.5 77 -4.3 24.2
06:25 1016 30 845 24.95 -0.8 30.5 78 -4.3 24.3
06:30 1016 30 845 24.95 -0.7 30.7 76 -4.4 24.1
06:35 1016 30 845 24.95 -0.8 30.7 79 -3.9 25
06:40 1016 30 845 24.95 -0.8 30.6 82 -3.5 25.7
06:45 1016 30 845 24.95 -0.8 30.6 84 -3.2 26.2
06:50 1016 30 845 24.95 -0.8 30.5 82 -3.5 25.7
06:55 1016 30 845 24.95 -0.9 30.3 82 -3.6 25.5
07:00 1016 30 845 24.95 -0.9 30.3 80 -4 24.8
07:05 1016 30 846 24.98 -0.9 30.4 80 -3.9 24.9
07:10 1016 30 846 24.98 -0.9 30.4 79 -4 24.8
07:15 1017 30.03 846 24.98 -0.8 30.5 79 -4 24.8
07:20 1017 30.03 846 24.98 -0.7 30.7 80 -3.8 25.1
07:25 1017 30.03 846 24.98 -0.6 30.9 78 -3.9 25
07:30 1017 30.03 846 24.98 -0.4 31.2 78 -3.8 25.2
07:35 1017 30.03 846 24.98 -0.3 31.5 80 -3.3 26.1
07:40 1017 30.03 846 24.98 0.2 32.3 77 -3.3 26
07:45 1017 30.03 846 24.98 0.4 32.7 76 -3.3 26.1
07:50 1017 30.03 846 24.98 0.4 32.7 74 -3.8 25.2
07:55 1017 30.03 846 24.98 0.4 32.7 73 -4 24.9
08:00 1017 30.03 846 24.98 0.6 33 69 -4.4 24.1
08:05 1017 30.03 846 24.98 0.6 33.1 69 -4.4 24.2
08:10 1017 30.03 846 24.98 0.6 33.1 69 -4.3 24.2
08:15 1017 30.03 846 24.98 0.7 33.3 68 -4.6 23.8
08:20 1017 30.03 846 24.98 0.8 33.5 66 -4.8 23.4
08:25 1017 30.03 846 24.98 0.8 33.5 65 -4.9 23.1
08:30 1017 30.03 846 24.98 1.1 33.9 64 -5.1 22.8
08:35 1017 30.03 846 24.98 1.4 34.4 63 -4.9 23.2
08:40 1017 30.03 847 25.01 1.5 34.8 62 -5 23
08:45 1017 30.03 847 25.01 1.7 35 61 -5.1 22.8
08:50 1018 30.06 847 25.01 1.8 35.3 62 -4.6 23.6
08:55 1018 30.06 847 25.01 1.8 35.2 61 -4.9 23.2
09:00 1018 30.06 847 25.01 1.8 35.2 62 -4.7 23.6
09:05 1018 30.06 847 25.01 2 35.6 59 -5.2 22.7
09:10 1018 30.06 847 25.01 2.5 36.4 58 -4.9 23.2
09:15 1018 30.06 847 25.01 2.6 36.6 56 -5.3 22.4
09:20 1018 30.06 847 25.01 2.6 36.7 57 -5.1 22.9
09:25 1018 30.06 847 25.01 2.8 37.1 56 -5 23
09:30 1018 30.06 847 25.01 2.5 36.4 59 -4.8 23.3
09:35 1018 30.06 847 25.01 2.9 37.2 56 -5 23.1
09:40 1018 30.06 847 25.01 2.3 36.1 60 -4.8 23.4
09:45 1018 30.06 847 25.01 2.1 35.8 59 -5.1 22.8
09:50 1018 30.06 847 25.01 2.6 36.8 57 -5.1 22.8
09:55 1018 30.06 847 25.01 3.4 38.2 54 -5 23
10:00 1018 30.06 847 25.01 3.6 38.4 53 -5 23
10:05 1018 30.06 847 25.01 3.5 38.3 53 -5.2 22.7
10:10 1018 30.06 848 25.04 3.2 37.8 54 -5.3 22.5
10:15 1018 30.06 848 25.04 3.5 38.3 51 -5.7 21.8
10:20 1018 30.06 848 25.04 3.7 38.7 51 -5.4 22.3
10:25 1019 30.09 848 25.04 3.9 39.1 51 -5.3 22.5
10:30 1019 30.09 848 25.04 4.1 39.4 51 -5.1 22.7
10:35 1019 30.09 848 25.04 3.8 38.8 54 -4.7 23.5
10:40 1019 30.09 848 25.04 3.1 37.6 56 -4.7 23.5
10:45 1019 30.09 848 25.04 3.5 38.4 54 -4.8 23.3
10:50 1019 30.09 848 25.04 3.6 38.5 56 -4.4 24
10:55 1019 30.09 848 25.04 4 39.1 55 -4.2 24.4
11:00 1019 30.09 848 25.04 3.9 39 54 -4.5 23.8
11:05 1019 30.09 848 25.04 3.5 38.4 56 -4.5 23.9
11:10 1019 30.09 848 25.04 3 37.4 59 -4.3 24.2
11:15 1019 30.09 848 25.04 3.3 38 55 -4.9 23.1
11:20 1019 30.09 848 25.04 3.9 38.9 54 -4.6 23.8
11:25 1019 30.09 848 25.04 3.2 37.8 60 -3.8 25.1
11:30 1019 30.09 848 25.04 2 35.7 64 -4 24.8
11:35 1019 30.09 848 25.04 2.8 37.1 61 -4 24.7
11:40 1019 30.09 848 25.04 2.3 36.2 66 -3.4 25.8
11:45 1019 30.09 848 25.04 2.4 36.2 62 -4.1 24.5
11:50 1019 30.09 848 25.04 2.7 36.9 58 -4.8 23.4
11:55 1019 30.09 848 25.04 3 37.3 56 -4.9 23.1
12:00 1019 30.09 848 25.04 2.8 37.1 58 -4.7 23.6
12:05 1019 30.09 848 25.04 2.9 37.2 58 -4.6 23.7
12:10 1019 30.09 848 25.04 2.6 36.6 63 -3.8 25.2
12:15 1019 30.09 848 25.04 2.8 37 61 -4 24.7
12:20 1019 30.09 848 25.04 3.3 37.9 56 -4.7 23.6
12:25 1019 30.09 848 25.04 3.6 38.4 56 -4.4 24.1
12:30 1019 30.09 848 25.04 4.1 39.3 51 -5.1 22.9
12:35 1019 30.09 848 25.04 4.3 39.7 48 -5.7 21.8
12:40 1019 30.09 848 25.04 4.6 40.2 48 -5.4 22.3
12:45 1019 30.09 848 25.04 4.5 40.1 49 -5.2 22.6
12:50 1019 30.09 849 25.07 4.9 40.9 44 -6.3 20.7
12:55 1019 30.09 849 25.07 5 41 44 -6.2 20.8
13:00 1019 30.09 849 25.07 5.1 41.3 45 -5.7 21.7
13:05 1019 30.09 849 25.07 5.3 41.6 40 -7.1 19.2
13:10 1019 30.09 849 25.07 4.8 40.6 44 -6.3 20.7
13:15 1019 30.09 849 25.07 4.4 39.9 46 -6.3 20.6
13:20 1020 30.12 849 25.07 4.7 40.5 41 -7.5 18.5
13:25 1020 30.12 849 25.07 5.2 41.3 43 -6.5 20.3
13:30 1020 30.12 849 25.07 5.6 42.1 41 -6.5 20.3
13:35 1020 30.12 849 25.07 5.1 41.2 45 -6 21.3
13:40 1020 30.12 849 25.07 4.3 39.8 46 -6.2 20.8
13:45 1020 30.12 849 25.07 4.2 39.5 48 -5.8 21.6
13:50 1020 30.12 849 25.07 5 40.9 44 -6.2 20.8
13:55 1020 30.12 849 25.07 5 41.1 45 -5.8 21.6
14:00 1020 30.12 849 25.07 6 42.8 41 -6.2 20.8
14:05 1020 30.12 849 25.07 7.1 44.7 40 -5.8 21.6
14:10 1020 30.12 849 25.07 6.5 43.7 41 -5.9 21.4
14:15 1020 30.12 849 25.07 6.3 43.4 42 -5.7 21.8
14:20 1020 30.12 849 25.07 6.4 43.5 43 -5.1 22.8
14:25 1020 30.12 850 25.1 5.2 41.4 47 -5.2 22.7
14:30 1020 30.12 850 25.1 5.5 41.8 46 -5.2 22.7
14:35 1021 30.15 850 25.1 5 40.9 51 -4.3 24.2
14:40 1021 30.15 850 25.1 5 40.9 48 -5.2 22.6
14:45 1021 30.15 850 25.1 4.7 40.5 47 -5.6 21.9
14:50 1021 30.15 850 25.1 5.4 41.8 46 -5.2 22.6
14:55 1021 30.15 850 25.1 5.9 42.6 42 -6.1 21.1
15:00 1021 30.15 850 25.1 7 44.6 40 -5.8 21.6
15:05 1021 30.15 850 25.1 7.3 45.1 40 -5.6 22
15:10 1021 30.15 850 25.1 7.4 45.3 36 -6.8 19.7
15:15 1021 30.15 850 25.1 7.6 45.7 37 -6.1 21.1
15:20 1021 30.15 850 25.1 7.8 46.1 35 -6.7 19.9
15:25 1021 30.15 850 25.1 7.9 46.2 35 -6.7 20
15:30 1021 30.15 850 25.1 8.2 46.8 32 -7.4 18.8
15:35 1021 30.15 850 25.1 8 46.4 33 -7.1 19.1
15:40 1021 30.15 850 25.1 7.9 46.3 34 -7.2 19.1
15:45 1021 30.15 850 25.1 8.4 47.1 33 -7.1 19.2
15:50 1021 30.15 851 25.13 8.5 47.4 31 -7.7 18.2
15:55 1021 30.15 851 25.13 8.5 47.4 32 -7 19.3
16:00 1021 30.15 851 25.13 8 46.3 35 -6.5 20.3
16:05 1021 30.15 851 25.13 7.5 45.6 34 -7.3 18.8
16:10 1021 30.15 851 25.13 7.8 46.1 35 -6.8 19.8
16:15 1021 30.15 851 25.13 7.6 45.7 35 -6.9 19.6
16:20 1022 30.18 851 25.13 7.6 45.6 34 -7.3 18.8
16:25 1022 30.18 851 25.13 7.4 45.3 34 -7.4 18.6
16:30 1022 30.18 851 25.13 7.2 45 33 -7.9 17.8
16:35 1022 30.18 851 25.13 7 44.6 33 -8.1 17.5
16:40 1022 30.18 851 25.13 6.9 44.3 33 -8.3 17
16:45 1022 30.18 851 25.13 7 44.7 33 -8.3 17
16:50 1022 30.18 851 25.13 7.8 46.1 32 -7.9 17.8
16:55 1022 30.18 851 25.13 8.2 46.7 32 -7.6 18.4
17:00 1022 30.18 851 25.13 8.2 46.7 31 -7.9 17.9
17:05 1022 30.18 851 25.13 8 46.3 33 -7.4 18.8
17:10 1022 30.18 851 25.13 7.8 46.1 33 -7.6 18.2
17:15 1022 30.18 851 25.13 7.6 45.6 32 -8 17.6
17:20 1022 30.18 851 25.13 7.7 45.9 33 -7.5 18.5
17:25 1022 30.18 851 25.13 7.6 45.7 33 -7.8 18
17:30 1022 30.18 852 25.16 7.3 45.1 36 -6.9 19.6
17:35 1022 30.18 852 25.16 7 44.5 36 -7.3 18.9
17:40 1022 30.18 852 25.16 7 44.7 35 -7.5 18.5
17:45 1023 30.21 852 25.16 7.1 44.8 35 -7.3 18.9
17:50 1023 30.21 852 25.16 6.8 44.2 36 -7.2 19.1
17:55 1023 30.21 852 25.16 6.5 43.8 37 -7.2 19.1
18:00 1023 30.21 852 25.16 6.1 43.1 41 -6.3 20.7
18:05 1023 30.21 852 25.16 5.8 42.4 41 -6.3 20.6
18:10 1023 30.21 852 25.16 5.6 42.1 42 -6.4 20.4
18:15 1023 30.21 852 25.16 5.7 42.2 40 -7 19.5
18:20 1023 30.21 852 25.16 5.8 42.5 42 -6.1 20.9
18:25 1023 30.21 852 25.16 5.8 42.5 41 -6.3 20.7
18:30 1023 30.21 852 25.16 5.7 42.3 37 -7.8 18
18:35 1023 30.21 852 25.16 5.7 42.2 40 -7 19.4
18:40 1023 30.21 852 25.16 5.6 42.1 43 -6.1 21.1
18:45 1023 30.21 853 25.19 5.4 41.8 45 -5.6 21.9
18:50 1023 30.21 853 25.19 5.2 41.4 47 -5.3 22.5
18:55 1024 30.24 853 25.19 5.1 41.3 48 -5 23.1
19:00 1024 30.24 853 25.19 5 41.1 44 -6.2 20.8
19:05 1024 30.24 853 25.19 4.9 40.8 45 -6.1 21.1
19:10 1024 30.24 853 25.19 5 40.9 44 -6.4 20.4
19:15 1024 30.24 853 25.19 5 41 42 -6.8 19.8
19:20 1024 30.24 853 25.19 5.1 41.1 41 -7.1 19.2
19:25 1024 30.24 853 25.19 5.2 41.3 42 -6.6 20.1
19:30 1024 30.24 853 25.19 5.1 41.1 44 -6.2 20.9
19:35 1024 30.24 853 25.19 4.9 40.9 46 -5.8 21.6
19:40 1024 30.24 853 25.19 4.7 40.4 48 -5.3 22.4
19:45 1024 30.24 854 25.22 4.5 40 48 -5.7 21.8
19:50 1024 30.24 854 25.22 4.4 39.9 52 -4.5 23.8
19:55 1025 30.27 854 25.22 4 39.2 58 -3.6 25.5
20:00 1025 30.27 854 25.22 3.5 38.3 62 -3 26.5
20:05 1025 30.27 854 25.22 3.1 37.5 64 -3.2 26.3
20:10 1025 30.27 854 25.22 2.7 36.9 67 -2.8 26.9
20:15 1025 30.27 854 25.22 2.4 36.4 71 -2.3 27.8
20:20 1025 30.27 854 25.22 1.9 35.4 74 -2.2 28.1
20:25 1025 30.27 854 25.22 1.7 35 72 -2.8 26.9
20:30 1025 30.27 854 25.22 1.7 35.1 72 -2.7 27.1
20:35 1025 30.27 854 25.22 1.7 35 69 -3.4 26
20:40 1025 30.27 854 25.22 1.7 35.1 71 -3.1 26.5
20:45 1025 30.27 855 25.25 1.6 34.9 72 -3 26.6
20:50 1025 30.27 855 25.25 1.5 34.6 73 -2.9 26.7
20:55 1025 30.27 855 25.25 1.6 34.8 70 -3.4 25.9
21:00 1025 30.27 855 25.25 2.1 35.8 65 -3.8 25.2
21:05 1025 30.27 855 25.25 2.5 36.5 63 -3.9 25
21:10 1026 30.3 855 25.25 2.6 36.7 63 -3.7 25.3
21:15 1026 30.3 855 25.25 2.6 36.7 60 -4.3 24.2
21:20 1026 30.3 855 25.25 2.8 37.1 58 -4.5 23.8
21:25 1026 30.3 855 25.25 2.8 37 62 -3.9 25
21:30 1026 30.3 855 25.25 2.5 36.5 62 -4.1 24.7
21:35 1026 30.3 855 25.25 2.6 36.6 59 -4.7 23.5
21:40 1026 30.3 855 25.25 2.8 37.1 55 -5.2 22.6
21:45 1026 30.3 855 25.25 3 37.4 56 -4.9 23.1
21:50 1026 30.3 855 25.25 2.9 37.3 59 -4.3 24.2
21:55 1026 30.3 856 25.28 2.7 36.8 65 -3.3 26
22:00 1026 30.3 856 25.28 2.4 36.3 67 -3.1 26.5
22:05 1026 30.3 856 25.28 2.2 36 70 -2.7 27.2
22:10 1027 30.33 856 25.28 2.1 35.8 70 -2.7 27.1
22:15 1027 30.33 856 25.28 2.2 35.9 68 -3.2 26.2
22:20 1027 30.33 856 25.28 2.3 36.2 64 -3.8 25.2
22:25 1027 30.33 856 25.28 2.5 36.4 64 -3.7 25.3
22:30 1027 30.33 856 25.28 2.5 36.5 65 -3.5 25.7
22:35 1027 30.33 856 25.28 2.5 36.5 64 -3.6 25.5
22:40 1027 30.33 856 25.28 2.5 36.6 63 -3.9 25.1
22:45 1027 30.33 856 25.28 2.6 36.6 63 -3.7 25.3
22:50 1027 30.33 856 25.28 2.6 36.7 58 -4.7 23.5
22:55 1027 30.33 856 25.28 2.7 36.8 58 -4.7 23.5
23:00 1027 30.33 856 25.28 2.7 36.8 58 -4.8 23.3
23:05 1027 30.33 856 25.28 2.7 36.8 57 -5 22.9
23:10 1027 30.33 856 25.28 2.7 36.8 55 -5.4 22.3
23:15 1027 30.33 857 25.31 2.6 36.7 56 -5.3 22.4
23:20 1027 30.33 857 25.31 2.6 36.7 57 -5.2 22.7
23:25 1027 30.33 857 25.31 2.5 36.6 56 -5.2 22.6
23:30 1027 30.33 857 25.31 2.5 36.5 56 -5.3 22.5
23:35 1028 30.36 857 25.31 2.5 36.5 57 -5.1 22.8
23:40 1028 30.36 857 25.31 2.5 36.5 57 -5.2 22.6
23:45 1028 30.36 857 25.31 2.5 36.5 55 -5.5 22.1
23:50 1028 30.36 857 25.31 2.5 36.5 56 -5.4 22.3
23:55 1028 30.36 857 25.31 2.5 36.4 56 -5.5 22.1
24:00 1028 30.36 857 25.31 2.4 36.4 56 -5.6 22